Time,TemperatureF,DewpointF,PressureIn,WindDirection,WindDirectionDegrees,WindSpeedMPH,WindSpeedGustMPH,Humidity,HourlyPrecipIn,Conditions,Clouds,dailyrainin,SoftwareType,DateUTC
2013-07-11 00:02:00,81.0,-99.9,29.98,South,188,3.0,4.0,-999,-99.99,,,-99.99,,2013-07-11 05:02:00,
2013-07-11 00:12:00,81.0,-99.9,29.98,South,189,3.0,4.0,-999,-99.99,,,-99.99,,2013-07-11 05:12:00,
2013-07-11 00:22:00,81.0,-99.9,29.97,North,-999,-999.0,-999.0,-999,-99.99,,,-99.99,,2013-07-11 05:22:00,
2013-07-11 00:32:00,81.0,-99.9,29.97,SSW,210,5.0,9.0,-999,-99.99,,,-99.99,,2013-07-11 05:32:00,
2013-07-11 00:43:00,82.0,-99.9,29.96,SW,217,5.0,7.0,-999,-99.99,,,-99.99,,2013-07-11 05:43:00,
2013-07-11 00:52:00,83.0,-99.9,29.96,North,-999,-999.0,-999.0,-999,-99.99,,,-99.99,,2013-07-11 05:52:00,
2013-07-11 01:01:00,83.0,-99.9,29.96,SW,226,5.0,8.0,-999,-99.99,,,-99.99,,2013-07-11 06:01:00,
2013-07-11 01:12:00,83.0,-99.9,29.96,SW,230,6.0,9.0,-999,-99.99,,,-99.99,,2013-07-11 06:12:00,
2013-07-11 01:22:00,83.0,-99.9,29.97,North,-999,-999.0,-999.0,-999,-99.99,,,-99.99,,2013-07-11 06:22:00,
2013-07-11 01:32:00,83.0,-99.9,29.97,SW,235,6.0,10.0,-999,-99.99,,,-99.99,,2013-07-11 06:32:00,
2013-07-11 01:43:00,83.0,-99.9,29.97,SW,234,8.0,11.0,-999,-99.99,,,-99.99,,2013-07-11 06:43:00,
2013-07-11 01:53:00,83.0,-99.9,29.98,North,-999,-999.0,-999.0,-999,-99.99,,,-99.99,,2013-07-11 06:53:00,
2013-07-11 02:02:00,82.0,-99.9,29.98,WSW,250,6.0,9.0,-999,-99.99,,,-99.99,,2013-07-11 07:02:00,
2013-07-11 02:12:00,83.0,-99.9,29.98,WSW,252,8.0,13.0,-999,-99.99,,,-99.99,,2013-07-11 07:12:00,
2013-07-11 02:22:00,82.0,-99.9,29.98,WSW,252,6.0,10.0,-999,-99.99,,,-99.99,,2013-07-11 07:22:00,
2013-07-11 02:32:00,82.0,-99.9,29.98,WSW,257,6.0,9.0,-999,-99.99,,,-99.99,,2013-07-11 07:32:00,
2013-07-11 02:45:00,82.0,-99.9,29.99,WSW,256,6.0,9.0,-999,-99.99,,,-99.99,,2013-07-11 07:45:00,
2013-07-11 02:53:00,82.0,-99.9,29.99,WSW,254,6.0,8.0,-999,-99.99,,,-99.99,,2013-07-11 07:53:00,
2013-07-11 03:02:00,82.0,-99.9,29.98,WSW,257,6.0,10.0,-999,-99.99,,,-99.99,,2013-07-11 08:02:00,
2013-07-11 03:12:00,82.0,-99.9,29.98,WSW,258,7.0,9.0,-999,-99.99,,,-99.99,,2013-07-11 08:12:00,
2013-07-11 03:22:00,82.0,-99.9,29.98,North,-999,-999.0,-999.0,-999,-99.99,,,-99.99,,2013-07-11 08:22:00,
2013-07-11 03:34:00,82.0,-99.9,29.98,West,264,6.0,10.0,-999,-99.99,,,-99.99,,2013-07-11 08:34:00,
2013-07-11 03:43:00,82.0,-99.9,29.98,North,-999,-999.0,-999.0,-999,-99.99,,,-99.99,,2013-07-11 08:43:00,
2013-07-11 03:53:00,82.0,-99.9,29.98,North,-999,-999.0,-999.0,-999,-99.99,,,-99.99,,2013-07-11 08:53:00,
2013-07-11 04:03:00,82.0,-99.9,29.98,West,265,5.0,10.0,-999,-99.99,,,-99.99,,2013-07-11 09:03:00,
2013-07-11 04:12:00,82.0,-99.9,29.97,West,264,4.0,6.0,-999,-99.99,,,-99.99,,2013-07-11 09:12:00,
2013-07-11 04:22:00,82.0,-99.9,29.97,North,-999,-999.0,-999.0,-999,-99.99,,,-99.99,,2013-07-11 09:22:00,
2013-07-11 04:33:00,82.0,-99.9,29.97,West,261,4.0,7.0,-999,-99.99,,,-99.99,,2013-07-11 09:33:00,
2013-07-11 04:43:00,82.0,-99.9,29.97,West,261,5.0,8.0,-999,-99.99,,,-99.99,,2013-07-11 09:43:00,
2013-07-11 04:53:00,82.0,-99.9,29.96,West,271,5.0,7.0,-999,-99.99,,,-99.99,,2013-07-11 09:53:00,
2013-07-11 05:01:00,81.0,-99.9,29.96,WNW,297,5.0,8.0,-999,-99.99,,,-99.99,,2013-07-11 10:01:00,
2013-07-11 05:12:00,80.0,-99.9,29.95,NW,314,4.0,6.0,-999,-99.99,,,-99.99,,2013-07-11 10:12:00,
2013-07-11 05:22:00,80.0,-99.9,29.94,North,-999,-999.0,-999.0,-999,-99.99,,,-99.99,,2013-07-11 10:22:00,
2013-07-11 05:33:00,80.0,-99.9,29.94,NW,309,5.0,6.0,-999,-99.99,,,-99.99,,2013-07-11 10:33:00,
2013-07-11 05:43:00,80.0,-99.9,29.95,NW,318,4.0,6.0,-999,-99.99,,,-99.99,,2013-07-11 10:43:00,
2013-07-11 05:52:00,80.0,-99.9,29.95,North,-999,-999.0,-999.0,-999,-99.99,,,-99.99,,2013-07-11 10:52:00,
2013-07-11 06:02:00,80.0,-99.9,29.95,WNW,298,5.0,9.0,-999,-99.99,,,-99.99,,2013-07-11 11:02:00,
2013-07-11 06:12:00,80.0,-99.9,29.96,WNW,286,7.0,11.0,-999,-99.99,,,-99.99,,2013-07-11 11:12:00,
2013-07-11 06:22:00,80.0,-99.9,29.95,WNW,289,7.0,10.0,-999,-99.99,,,-99.99,,2013-07-11 11:22:00,
2013-07-11 06:33:00,80.0,-99.9,29.96,WNW,284,6.0,11.0,-999,-99.99,,,-99.99,,2013-07-11 11:33:00,
2013-07-11 06:43:00,80.0,-99.9,29.96,WNW,303,6.0,9.0,-999,-99.99,,,-99.99,,2013-07-11 11:43:00,
2013-07-11 06:53:00,79.0,-99.9,29.96,North,-999,-999.0,-999.0,-999,-99.99,,,-99.99,,2013-07-11 11:53:00,
2013-07-11 07:01:00,80.0,-99.9,29.96,WNW,286,6.0,9.0,-999,-99.99,,,-99.99,,2013-07-11 12:01:00,
2013-07-11 07:12:00,80.0,-99.9,29.96,West,271,6.0,8.0,-999,-99.99,,,-99.99,,2013-07-11 12:12:00,
2013-07-11 07:22:00,80.0,-99.9,29.98,North,-999,-999.0,-999.0,-999,-99.99,,,-99.99,,2013-07-11 12:22:00,
2013-07-11 07:33:00,80.0,-99.9,29.97,WNW,284,4.0,7.0,-999,-99.99,,,-99.99,,2013-07-11 12:33:00,
2013-07-11 07:43:00,80.0,-99.9,29.97,WNW,290,6.0,9.0,-999,-99.99,,,-99.99,,2013-07-11 12:43:00,
2013-07-11 07:57:00,80.0,-99.9,29.97,North,-999,-999.0,-999.0,-999,-99.99,,,-99.99,,2013-07-11 12:57:00,
2013-07-11 08:04:00,79.0,-99.9,29.97,North,-999,-999.0,-999.0,-999,-99.99,,,-99.99,,2013-07-11 13:04:00,
2013-07-11 08:24:00,80.0,-99.9,29.97,North,-999,-999.0,-999.0,-999,-99.99,,,-99.99,,2013-07-11 13:24:00,
2013-07-11 08:35:00,79.0,-99.9,29.97,NW,311,2.0,4.0,-999,-99.99,,,-99.99,,2013-07-11 13:35:00,
2013-07-11 08:47:00,80.0,-99.9,29.98,SSE,147,6.0,15.0,-999,-99.99,,,-99.99,,2013-07-11 13:47:00,
2013-07-11 08:55:00,78.0,-99.9,29.98,SSE,159,14.0,20.0,-999,-99.99,,,-99.99,,2013-07-11 13:55:00,
2013-07-11 09:36:00,78.0,-99.9,29.97,South,171,19.0,25.0,-999,-99.99,,,-99.99,,2013-07-11 14:36:00,
2013-07-11 09:47:00,78.0,-99.9,29.97,South,179,17.0,20.0,-999,-99.99,,,-99.99,,2013-07-11 14:47:00,
2013-07-11 09:55:00,77.0,-99.9,29.97,North,-999,-999.0,-999.0,-999,-99.99,,,-99.99,,2013-07-11 14:55:00,
2013-07-11 10:06:00,76.0,-99.9,29.98,SSW,193,16.0,24.0,-999,-99.99,,,-99.99,,2013-07-11 15:06:00,
2013-07-11 10:15:00,76.0,-99.9,29.98,SSW,193,16.0,24.0,-999,-99.99,,,-99.99,,2013-07-11 15:15:00,
2013-07-11 10:25:00,75.0,-99.9,30.00,North,-999,-999.0,-999.0,-999,-99.99,,,-99.99,,2013-07-11 15:25:00,
2013-07-11 10:38:00,75.0,-99.9,30.00,South,185,14.0,19.0,-999,-99.99,,,-99.99,,2013-07-11 15:38:00,
2013-07-11 10:48:00,75.0,-99.9,30.00,South,176,16.0,21.0,-999,-99.99,,,-99.99,,2013-07-11 15:48:00,
2013-07-11 10:59:00,74.0,-99.9,30.00,North,-999,-999.0,-999.0,-999,-99.99,,,-99.99,,2013-07-11 15:59:00,
2013-07-11 11:06:00,74.0,-99.9,30.00,South,187,19.0,24.0,-999,-99.99,,,-99.99,,2013-07-11 16:06:00,
2013-07-11 11:15:00,74.0,-99.9,29.99,South,180,21.0,25.0,-999,-99.99,,,-99.99,,2013-07-11 16:15:00,
2013-07-11 11:27:00,73.0,-99.9,29.99,North,-999,-999.0,-999.0,-999,-99.99,,,-99.99,,2013-07-11 16:27:00,
2013-07-11 11:36:00,74.0,-99.9,29.99,South,179,19.0,24.0,-999,-99.99,,,-99.99,,2013-07-11 16:36:00,
2013-07-11 11:49:00,74.0,-99.9,29.98,South,174,25.0,30.0,-999,-99.99,,,-99.99,,2013-07-11 16:49:00,
2013-07-11 11:56:00,73.0,-99.9,29.97,SSE,164,25.0,29.0,-999,-99.99,,,-99.99,,2013-07-11 16:56:00,
2013-07-11 12:03:00,74.0,-99.9,29.97,South,171,25.0,28.0,-999,-99.99,,,-99.99,,2013-07-11 17:03:00,
2013-07-11 12:17:00,74.0,-99.9,29.98,South,171,22.0,26.0,-999,-99.99,,,-99.99,,2013-07-11 17:17:00,
2013-07-11 12:27:00,74.0,-99.9,29.99,North,-999,-999.0,-999.0,-999,-99.99,,,-99.99,,2013-07-11 17:27:00,
2013-07-11 12:40:00,74.0,-99.9,29.99,SSE,165,12.0,16.0,-999,-99.99,,,-99.99,,2013-07-11 17:40:00,
2013-07-11 12:50:00,74.0,-99.9,30.00,SE,139,10.0,15.0,-999,-99.99,,,-99.99,,2013-07-11 17:50:00,
2013-07-11 12:57:00,74.0,-99.9,30.01,North,-999,-999.0,-999.0,-999,-99.99,,,-99.99,,2013-07-11 17:57:00,
2013-07-11 13:06:00,74.0,-99.9,30.01,South,176,7.0,10.0,-999,-99.99,,,-99.99,,2013-07-11 18:06:00,
2013-07-11 13:16:00,75.0,-99.9,29.99,SSE,160,18.0,21.0,-999,-99.99,,,-99.99,,2013-07-11 18:16:00,
2013-07-11 13:37:00,75.0,-99.9,29.99,SSE,160,6.0,7.0,-999,-99.99,,,-99.99,,2013-07-11 18:37:00,
2013-07-11 13:50:00,76.0,-99.9,29.99,SE,140,6.0,7.0,-999,-99.99,,,-99.99,,2013-07-11 18:50:00,
2013-07-11 13:56:00,76.0,-99.9,29.98,SSW,196,4.0,6.0,-999,-99.99,,,-99.99,,2013-07-11 18:56:00,
2013-07-11 14:05:00,76.0,-99.9,29.98,SSW,212,5.0,6.0,-999,-99.99,,,-99.99,,2013-07-11 19:05:00,
2013-07-11 14:13:00,75.0,-99.9,29.97,NW,304,4.0,5.0,-999,-99.99,,,-99.99,,2013-07-11 19:13:00,
2013-07-11 14:25:00,76.0,-99.9,29.98,North,-999,-999.0,-999.0,-999,-99.99,,,-99.99,,2013-07-11 19:25:00,
2013-07-11 14:39:00,76.0,-99.9,29.97,NW,315,5.0,7.0,-999,-99.99,,,-99.99,,2013-07-11 19:39:00,
2013-07-11 14:47:00,75.0,-99.9,29.97,NW,319,7.0,9.0,-999,-99.99,,,-99.99,,2013-07-11 19:47:00,
2013-07-11 14:58:00,75.0,-99.9,29.97,NW,313,6.0,9.0,-999,-99.99,,,-99.99,,2013-07-11 19:58:00,
2013-07-11 15:07:00,75.0,-99.9,29.96,WNW,295,5.0,7.0,-999,-99.99,,,-99.99,,2013-07-11 20:07:00,
2013-07-11 15:26:00,75.0,-99.9,29.94,West,272,4.0,5.0,-999,-99.99,,,-99.99,,2013-07-11 20:26:00,
2013-07-11 15:40:00,75.0,-99.9,29.93,West,264,3.0,5.0,-999,-99.99,,,-99.99,,2013-07-11 20:40:00,
2013-07-11 15:50:00,75.0,-99.9,29.92,North,-999,-999.0,-999.0,-999,-99.99,,,-99.99,,2013-07-11 20:50:00,
2013-07-11 15:56:00,76.0,-99.9,29.92,North,-999,-999.0,-999.0,-999,-99.99,,,-99.99,,2013-07-11 20:56:00,
2013-07-11 16:06:00,76.0,-99.9,29.91,WSW,245,5.0,6.0,-999,-99.99,,,-99.99,,2013-07-11 21:06:00,
2013-07-11 16:16:00,76.0,-99.9,29.91,North,-999,-999.0,-999.0,-999,-99.99,,,-99.99,,2013-07-11 21:16:00,
2013-07-11 16:36:00,76.0,-99.9,29.90,SW,228,4.0,5.0,-999,-99.99,,,-99.99,,2013-07-11 21:36:00,
2013-07-11 16:46:00,76.0,-99.9,29.91,North,-999,-999.0,-999.0,-999,-99.99,,,-99.99,,2013-07-11 21:46:00,
2013-07-11 16:59:00,76.0,-99.9,29.90,NNW,343,6.0,8.0,-999,-99.99,,,-99.99,,2013-07-11 21:59:00,
2013-07-11 17:18:00,76.0,-99.9,29.89,North,-999,-999.0,-999.0,-999,-99.99,,,-99.99,,2013-07-11 22:18:00,
2013-07-11 17:27:00,77.0,-99.9,29.89,NNW,345,6.0,8.0,-999,-99.99,,,-99.99,,2013-07-11 22:27:00,
2013-07-11 17:36:00,77.0,-99.9,29.88,NNW,341,7.0,8.0,-999,-99.99,,,-99.99,,2013-07-11 22:36:00,
2013-07-11 17:55:00,77.0,-99.9,29.88,NNW,338,7.0,9.0,-999,-99.99,,,-99.99,,2013-07-11 22:55:00,
2013-07-11 18:07:00,78.0,-99.9,29.88,North,-999,-999.0,-999.0,-999,-99.99,,,-99.99,,2013-07-11 23:07:00,
2013-07-11 18:26:00,78.0,-99.9,29.88,NNW,343,5.0,8.0,-999,-99.99,,,-99.99,,2013-07-11 23:26:00,
2013-07-11 18:37:00,79.0,-99.9,29.88,North,355,6.0,9.0,-999,-99.99,,,-99.99,,2013-07-11 23:37:00,
2013-07-11 18:48:00,78.0,-99.9,29.88,NNW,347,6.0,8.0,-999,-99.99,,,-99.99,,2013-07-11 23:48:00,
2013-07-11 19:00:00,78.0,-99.9,29.88,NNW,339,5.0,6.0,-999,-99.99,,,-99.99,,2013-07-12 00:00:00,
2013-07-11 19:06:00,78.0,-99.9,29.87,NNW,344,0.0,1.0,-999,-99.99,,,-99.99,,2013-07-12 00:06:00,
2013-07-11 19:15:00,78.0,-99.9,29.87,ESE,115,3.0,4.0,-999,-99.99,,,-99.99,,2013-07-12 00:15:00,
2013-07-11 19:26:00,78.0,-99.9,29.88,North,-999,-999.0,-999.0,-999,-99.99,,,-99.99,,2013-07-12 00:26:00,
2013-07-11 19:37:00,78.0,-99.9,29.88,ESE,113,2.0,3.0,-999,-99.99,,,-99.99,,2013-07-12 00:37:00,
2013-07-11 19:46:00,78.0,-99.9,29.89,SE,139,2.0,3.0,-999,-99.99,,,-99.99,,2013-07-12 00:46:00,
2013-07-11 19:58:00,78.0,-99.9,29.89,SSE,162,3.0,4.0,-999,-99.99,,,-99.99,,2013-07-12 00:58:00,
2013-07-11 20:05:00,78.0,-99.9,29.89,SSE,160,5.0,6.0,-999,-99.99,,,-99.99,,2013-07-12 01:05:00,
2013-07-11 20:14:00,78.0,-99.9,29.90,South,169,5.0,6.0,-999,-99.99,,,-99.99,,2013-07-12 01:14:00,
2013-07-11 20:27:00,78.0,-99.9,29.90,North,-999,-999.0,-999.0,-999,-99.99,,,-99.99,,2013-07-12 01:27:00,
2013-07-11 20:38:00,78.0,-99.9,29.90,SSE,166,6.0,7.0,-999,-99.99,,,-99.99,,2013-07-12 01:38:00,
2013-07-11 20:49:00,78.0,-99.9,29.90,South,171,6.0,7.0,-999,-99.99,,,-99.99,,2013-07-12 01:49:00,
2013-07-11 20:56:00,78.0,-99.9,29.90,North,-999,-999.0,-999.0,-999,-99.99,,,-99.99,,2013-07-12 01:56:00,
2013-07-11 21:09:00,77.0,-99.9,29.91,SW,217,2.0,3.0,-999,-99.99,,,-99.99,,2013-07-12 02:09:00,
2013-07-11 21:17:00,77.0,-99.9,29.91,SW,229,3.0,4.0,-999,-99.99,,,-99.99,,2013-07-12 02:17:00,
2013-07-11 21:27:00,77.0,-99.9,29.92,NW,306,3.0,4.0,-999,-99.99,,,-99.99,,2013-07-12 02:27:00,
2013-07-11 21:36:00,77.0,-99.9,29.92,SW,232,2.0,2.0,-999,-99.99,,,-99.99,,2013-07-12 02:36:00,
2013-07-11 21:46:00,77.0,-99.9,29.92,West,264,2.0,3.0,-999,-99.99,,,-99.99,,2013-07-12 02:46:00,
2013-07-11 21:56:00,77.0,-99.9,29.92,North,-999,-999.0,-999.0,-999,-99.99,,,-99.99,,2013-07-12 02:56:00,
2013-07-11 22:04:00,77.0,-99.9,29.92,South,175,5.0,6.0,-999,-99.99,,,-99.99,,2013-07-12 03:04:00,
2013-07-11 22:14:00,78.0,-99.9,29.92,SSW,205,2.0,3.0,-999,-99.99,,,-99.99,,2013-07-12 03:14:00,
2013-07-11 22:47:00,77.0,-99.9,29.93,NW,304,2.0,3.0,-999,-99.99,,,-99.99,,2013-07-12 03:47:00,
2013-07-11 23:01:00,76.0,-99.9,29.93,NW,312,4.0,5.0,-999,-99.99,,,-99.99,,2013-07-12 04:01:00,
2013-07-11 23:11:00,76.0,-99.9,29.94,NW,325,3.0,5.0,-999,-99.99,,,-99.99,,2013-07-12 04:11:00,
2013-07-11 23:22:00,75.0,-99.9,29.93,North,-999,-999.0,-999.0,-999,-99.99,,,-99.99,,2013-07-12 04:22:00,
2013-07-11 23:32:00,75.0,-99.9,29.93,NW,314,4.0,5.0,-999,-99.99,,,-99.99,,2013-07-12 04:32:00,
2013-07-11 23:43:00,75.0,-99.9,29.92,NW,325,5.0,6.0,-999,-99.99,,,-99.99,,2013-07-12 04:43:00,
2013-07-11 23:53:00,75.0,-99.9,29.92,NNW,329,4.0,5.0,-999,-99.99,,,-99.99,,2013-07-12 04:53:00,